sensor_id;sensor_type;location;lat;lon;timestamp;P1;durP1;ratioP1;P2;durP2;ratioP2
4555;SDS011;2290;48.674;9.018;2023-05-15T00:01:06;5.80;;;3.70;;
4555;SDS011;2290;48.674;9.018;2023-05-15T00:03:32;4.37;;;3.53;;
4555;SDS011;2290;48.674;9.018;2023-05-15T00:05:57;5.20;;;3.43;;
4555;SDS011;2290;48.674;9.018;2023-05-15T00:08:23;4.77;;;3.67;;
4555;SDS011;2290;48.674;9.018;2023-05-15T00:10:48;4.60;;;3.63;;
4555;SDS011;2290;48.674;9.018;2023-05-15T00:13:16;6.10;;;3.50;;
4555;SDS011;2290;48.674;9.018;2023-05-15T00:15:42;5.90;;;3.60;;
4555;SDS011;2290;48.674;9.018;2023-05-15T00:18:07;5.83;;;3.70;;
4555;SDS011;2290;48.674;9.018;2023-05-15T00:20:33;5.57;;;4.07;;
4555;SDS011;2290;48.674;9.018;2023-05-15T00:22:58;6.23;;;3.70;;
4555;SDS011;2290;48.674;9.018;2023-05-15T00:25:24;6.40;;;3.93;;
4555;SDS011;2290;48.674;9.018;2023-05-15T00:27:50;5.80;;;3.90;;
4555;SDS011;2290;48.674;9.018;2023-05-15T00:30:15;4.70;;;3.53;;
4555;SDS011;2290;48.674;9.018;2023-05-15T00:32:41;6.23;;;3.97;;
4555;SDS011;2290;48.674;9.018;2023-05-15T00:35:06;4.07;;;3.67;;
4555;SDS011;2290;48.674;9.018;2023-05-15T00:37:32;5.97;;;4.37;;
4555;SDS011;2290;48.674;9.018;2023-05-15T00:39:58;6.80;;;4.00;;
4555;SDS011;2290;48.674;9.018;2023-05-15T00:42:23;4.80;;;3.10;;
4555;SDS011;2290;48.674;9.018;2023-05-15T00:44:49;6.40;;;3.60;;
4555;SDS011;2290;48.674;9.018;2023-05-15T00:47:17;9.13;;;4.80;;
4555;SDS011;2290;48.674;9.018;2023-05-15T00:49:46;5.03;;;3.20;;
4555;SDS011;2290;48.674;9.018;2023-05-15T00:52:13;4.63;;;3.43;;
4555;SDS011;2290;48.674;9.018;2023-05-15T00:54:39;4.90;;;3.20;;
4555;SDS011;2290;48.674;9.018;2023-05-15T00:57:05;4.60;;;3.40;;
4555;SDS011;2290;48.674;9.018;2023-05-15T00:59:32;5.90;;;3.90;;
4555;SDS011;2290;48.674;9.018;2023-05-15T01:01:58;6.73;;;3.67;;
4555;SDS011;2290;48.674;9.018;2023-05-15T01:04:24;5.03;;;4.00;;
4555;SDS011;2290;48.674;9.018;2023-05-15T01:06:50;5.50;;;4.10;;
4555;SDS011;2290;48.674;9.018;2023-05-15T01:09:18;5.23;;;3.93;;
4555;SDS011;2290;48.674;9.018;2023-05-15T01:11:46;4.83;;;3.33;;
4555;SDS011;2290;48.674;9.018;2023-05-15T01:14:15;5.17;;;3.40;;
4555;SDS011;2290;48.674;9.018;2023-05-15T01:16:40;4.80;;;3.80;;
4555;SDS011;2290;48.674;9.018;2023-05-15T01:19:06;10.40;;;4.00;;
4555;SDS011;2290;48.674;9.018;2023-05-15T01:27:38;5.07;;;3.10;;
4555;SDS011;2290;48.674;9.018;2023-05-15T01:30:33;5.63;;;3.57;;
4555;SDS011;2290;48.674;9.018;2023-05-15T01:33:15;4.10;;;3.17;;
4555;SDS011;2290;48.674;9.018;2023-05-15T01:35:48;5.00;;;3.57;;
4555;SDS011;2290;48.674;9.018;2023-05-15T01:38:38;5.63;;;3.37;;
4555;SDS011;2290;48.674;9.018;2023-05-15T01:44:17;5.40;;;3.60;;
4555;SDS011;2290;48.674;9.018;2023-05-15T01:46:50;4.73;;;3.67;;
4555;SDS011;2290;48.674;9.018;2023-05-15T01:49:19;4.80;;;3.60;;
4555;SDS011;2290;48.674;9.018;2023-05-15T01:51:51;4.20;;;3.33;;
4555;SDS011;2290;48.674;9.018;2023-05-15T01:54:22;6.43;;;3.37;;
4555;SDS011;2290;48.674;9.018;2023-05-15T01:56:49;6.40;;;3.70;;
4555;SDS011;2290;48.674;9.018;2023-05-15T01:59:16;4.30;;;3.30;;
4555;SDS011;2290;48.674;9.018;2023-05-15T02:01:43;5.43;;;3.00;;
4555;SDS011;2290;48.674;9.018;2023-05-15T02:04:10;7.40;;;3.70;;
4555;SDS011;2290;48.674;9.018;2023-05-15T02:06:36;5.43;;;3.37;;
4555;SDS011;2290;48.674;9.018;2023-05-15T02:09:03;4.37;;;3.90;;
4555;SDS011;2290;48.674;9.018;2023-05-15T02:11:29;5.13;;;3.73;;
4555;SDS011;2290;48.674;9.018;2023-05-15T02:13:55;6.00;;;3.60;;
4555;SDS011;2290;48.674;9.018;2023-05-15T02:16:21;5.17;;;3.83;;
4555;SDS011;2290;48.674;9.018;2023-05-15T02:18:47;4.67;;;3.63;;
4555;SDS011;2290;48.674;9.018;2023-05-15T02:21:13;5.47;;;3.60;;
4555;SDS011;2290;48.674;9.018;2023-05-15T02:23:39;5.00;;;3.40;;
4555;SDS011;2290;48.674;9.018;2023-05-15T02:28:57;5.13;;;3.90;;
4555;SDS011;2290;48.674;9.018;2023-05-15T02:34:50;5.87;;;4.00;;
4555;SDS011;2290;48.674;9.018;2023-05-15T02:37:37;6.60;;;3.70;;
4555;SDS011;2290;48.674;9.018;2023-05-15T02:40:06;8.07;;;4.90;;
4555;SDS011;2290;48.674;9.018;2023-05-15T02:42:36;5.37;;;3.60;;
4555;SDS011;2290;48.674;9.018;2023-05-15T02:45:03;5.80;;;3.87;;
4555;SDS011;2290;48.674;9.018;2023-05-15T02:47:33;7.47;;;3.63;;
4555;SDS011;2290;48.674;9.018;2023-05-15T02:50:02;6.37;;;3.90;;
4555;SDS011;2290;48.674;9.018;2023-05-15T02:52:29;4.67;;;3.80;;
4555;SDS011;2290;48.674;9.018;2023-05-15T02:54:55;5.23;;;3.50;;
4555;SDS011;2290;48.674;9.018;2023-05-15T02:57:23;7.23;;;4.23;;
4555;SDS011;2290;48.674;9.018;2023-05-15T02:59:48;5.47;;;3.53;;
4555;SDS011;2290;48.674;9.018;2023-05-15T03:02:18;8.83;;;3.93;;
4555;SDS011;2290;48.674;9.018;2023-05-15T03:04:43;4.70;;;3.90;;
4555;SDS011;2290;48.674;9.018;2023-05-15T03:07:09;6.33;;;4.30;;
4555;SDS011;2290;48.674;9.018;2023-05-15T03:09:35;5.00;;;3.73;;
4555;SDS011;2290;48.674;9.018;2023-05-15T03:12:00;4.40;;;3.27;;
4555;SDS011;2290;48.674;9.018;2023-05-15T03:14:26;5.60;;;4.00;;
4555;SDS011;2290;48.674;9.018;2023-05-15T03:16:52;5.77;;;3.50;;
4555;SDS011;2290;48.674;9.018;2023-05-15T03:19:17;5.20;;;3.50;;
4555;SDS011;2290;48.674;9.018;2023-05-15T03:21:44;4.83;;;3.67;;
4555;SDS011;2290;48.674;9.018;2023-05-15T03:24:10;5.97;;;3.40;;
4555;SDS011;2290;48.674;9.018;2023-05-15T03:26:35;5.00;;;3.50;;
4555;SDS011;2290;48.674;9.018;2023-05-15T03:29:01;5.03;;;3.83;;
4555;SDS011;2290;48.674;9.018;2023-05-15T03:31:27;4.97;;;3.60;;
4555;SDS011;2290;48.674;9.018;2023-05-15T03:33:53;5.63;;;3.60;;
4555;SDS011;2290;48.674;9.018;2023-05-15T03:36:19;6.17;;;4.23;;
4555;SDS011;2290;48.674;9.018;2023-05-15T03:38:46;5.57;;;3.80;;
4555;SDS011;2290;48.674;9.018;2023-05-15T03:41:12;9.13;;;3.67;;
4555;SDS011;2290;48.674;9.018;2023-05-15T03:43:37;4.90;;;3.70;;
4555;SDS011;2290;48.674;9.018;2023-05-15T03:46:03;6.87;;;4.10;;
4555;SDS011;2290;48.674;9.018;2023-05-15T03:48:29;5.27;;;3.80;;
4555;SDS011;2290;48.674;9.018;2023-05-15T03:50:55;4.50;;;3.47;;
4555;SDS011;2290;48.674;9.018;2023-05-15T03:53:20;6.07;;;3.97;;
4555;SDS011;2290;48.674;9.018;2023-05-15T03:55:46;5.40;;;3.67;;
4555;SDS011;2290;48.674;9.018;2023-05-15T03:58:12;6.03;;;3.90;;
4555;SDS011;2290;48.674;9.018;2023-05-15T04:00:37;4.87;;;3.73;;
4555;SDS011;2290;48.674;9.018;2023-05-15T04:03:03;3.70;;;3.13;;
4555;SDS011;2290;48.674;9.018;2023-05-15T04:05:30;4.77;;;3.57;;
4555;SDS011;2290;48.674;9.018;2023-05-15T04:07:55;5.83;;;4.13;;
4555;SDS011;2290;48.674;9.018;2023-05-15T04:10:21;4.43;;;3.77;;
4555;SDS011;2290;48.674;9.018;2023-05-15T04:12:46;7.70;;;4.37;;
4555;SDS011;2290;48.674;9.018;2023-05-15T04:15:17;4.30;;;3.27;;
4555;SDS011;2290;48.674;9.018;2023-05-15T04:17:47;5.30;;;3.30;;
4555;SDS011;2290;48.674;9.018;2023-05-15T04:20:17;4.53;;;3.40;;
4555;SDS011;2290;48.674;9.018;2023-05-15T04:22:44;5.70;;;4.00;;
4555;SDS011;2290;48.674;9.018;2023-05-15T04:25:10;4.20;;;3.30;;
4555;SDS011;2290;48.674;9.018;2023-05-15T04:27:38;8.80;;;3.60;;
4555;SDS011;2290;48.674;9.018;2023-05-15T04:30:06;5.90;;;3.67;;
4555;SDS011;2290;48.674;9.018;2023-05-15T04:32:33;4.90;;;3.50;;
4555;SDS011;2290;48.674;9.018;2023-05-15T04:35:00;4.90;;;3.40;;
4555;SDS011;2290;48.674;9.018;2023-05-15T04:37:29;3.90;;;3.37;;
4555;SDS011;2290;48.674;9.018;2023-05-15T04:39:55;6.90;;;3.40;;
4555;SDS011;2290;48.674;9.018;2023-05-15T04:42:20;4.90;;;3.33;;
4555;SDS011;2290;48.674;9.018;2023-05-15T04:44:46;4.03;;;3.40;;
4555;SDS011;2290;48.674;9.018;2023-05-15T04:47:12;4.90;;;3.50;;
4555;SDS011;2290;48.674;9.018;2023-05-15T04:49:39;3.83;;;2.97;;
4555;SDS011;2290;48.674;9.018;2023-05-15T04:52:05;6.53;;;4.03;;
4555;SDS011;2290;48.674;9.018;2023-05-15T04:54:32;6.33;;;4.37;;
4555;SDS011;2290;48.674;9.018;2023-05-15T04:56:58;5.73;;;3.97;;
4555;SDS011;2290;48.674;9.018;2023-05-15T04:59:23;6.30;;;3.60;;
4555;SDS011;2290;48.674;9.018;2023-05-15T05:01:49;5.47;;;3.30;;
4555;SDS011;2290;48.674;9.018;2023-05-15T05:04:15;6.17;;;3.90;;
4555;SDS011;2290;48.674;9.018;2023-05-15T05:06:44;8.00;;;4.00;;
4555;SDS011;2290;48.674;9.018;2023-05-15T05:09:10;4.60;;;3.37;;
4555;SDS011;2290;48.674;9.018;2023-05-15T05:11:37;5.23;;;3.77;;
4555;SDS011;2290;48.674;9.018;2023-05-15T05:14:03;6.40;;;4.20;;
4555;SDS011;2290;48.674;9.018;2023-05-15T05:16:30;4.90;;;3.43;;
4555;SDS011;2290;48.674;9.018;2023-05-15T05:18:56;5.83;;;3.77;;
4555;SDS011;2290;48.674;9.018;2023-05-15T05:21:21;6.87;;;3.87;;
4555;SDS011;2290;48.674;9.018;2023-05-15T05:23:47;5.83;;;4.10;;
4555;SDS011;2290;48.674;9.018;2023-05-15T05:26:12;5.43;;;3.60;;
4555;SDS011;2290;48.674;9.018;2023-05-15T05:28:38;6.00;;;3.90;;
4555;SDS011;2290;48.674;9.018;2023-05-15T05:31:09;7.20;;;4.10;;
4555;SDS011;2290;48.674;9.018;2023-05-15T05:33:34;5.70;;;3.77;;
4555;SDS011;2290;48.674;9.018;2023-05-15T05:36:00;6.57;;;3.50;;
4555;SDS011;2290;48.674;9.018;2023-05-15T05:38:26;5.20;;;4.23;;
4555;SDS011;2290;48.674;9.018;2023-05-15T05:40:52;7.90;;;4.37;;
4555;SDS011;2290;48.674;9.018;2023-05-15T05:43:19;7.67;;;3.60;;
4555;SDS011;2290;48.674;9.018;2023-05-15T05:45:45;4.07;;;3.40;;
4555;SDS011;2290;48.674;9.018;2023-05-15T05:48:11;5.00;;;3.70;;
4555;SDS011;2290;48.674;9.018;2023-05-15T05:50:37;5.43;;;4.10;;
4555;SDS011;2290;48.674;9.018;2023-05-15T05:53:03;5.60;;;4.20;;
4555;SDS011;2290;48.674;9.018;2023-05-15T05:55:31;8.33;;;4.80;;
4555;SDS011;2290;48.674;9.018;2023-05-15T05:57:58;5.90;;;4.07;;
4555;SDS011;2290;48.674;9.018;2023-05-15T06:00:23;7.40;;;3.97;;
4555;SDS011;2290;48.674;9.018;2023-05-15T06:02:54;6.20;;;4.40;;
4555;SDS011;2290;48.674;9.018;2023-05-15T06:05:21;5.50;;;3.90;;
4555;SDS011;2290;48.674;9.018;2023-05-15T06:07:47;5.97;;;4.27;;
4555;SDS011;2290;48.674;9.018;2023-05-15T06:10:13;5.57;;;4.00;;
4555;SDS011;2290;48.674;9.018;2023-05-15T06:12:38;7.80;;;3.63;;
4555;SDS011;2290;48.674;9.018;2023-05-15T06:15:04;5.87;;;4.20;;
4555;SDS011;2290;48.674;9.018;2023-05-15T06:17:31;6.23;;;4.43;;
4555;SDS011;2290;48.674;9.018;2023-05-15T06:19:56;5.13;;;3.90;;
4555;SDS011;2290;48.674;9.018;2023-05-15T06:22:22;7.43;;;4.97;;
4555;SDS011;2290;48.674;9.018;2023-05-15T06:24:49;8.90;;;4.90;;
4555;SDS011;2290;48.674;9.018;2023-05-15T06:27:15;5.30;;;4.03;;
4555;SDS011;2290;48.674;9.018;2023-05-15T06:29:40;6.07;;;4.80;;
4555;SDS011;2290;48.674;9.018;2023-05-15T06:32:07;6.50;;;4.60;;
4555;SDS011;2290;48.674;9.018;2023-05-15T06:34:33;7.00;;;4.67;;
4555;SDS011;2290;48.674;9.018;2023-05-15T06:36:58;7.00;;;4.57;;
4555;SDS011;2290;48.674;9.018;2023-05-15T06:39:24;5.57;;;4.27;;
4555;SDS011;2290;48.674;9.018;2023-05-15T06:41:50;7.80;;;5.10;;
4555;SDS011;2290;48.674;9.018;2023-05-15T06:44:21;6.10;;;4.40;;
4555;SDS011;2290;48.674;9.018;2023-05-15T06:46:47;6.90;;;4.70;;
4555;SDS011;2290;48.674;9.018;2023-05-15T06:49:13;7.07;;;4.63;;
4555;SDS011;2290;48.674;9.018;2023-05-15T06:51:38;6.60;;;4.60;;
4555;SDS011;2290;48.674;9.018;2023-05-15T06:54:04;5.70;;;4.60;;
4555;SDS011;2290;48.674;9.018;2023-05-15T06:56:29;7.33;;;4.87;;
4555;SDS011;2290;48.674;9.018;2023-05-15T06:58:55;6.10;;;4.63;;
4555;SDS011;2290;48.674;9.018;2023-05-15T07:01:22;10.00;;;5.40;;
4555;SDS011;2290;48.674;9.018;2023-05-15T07:03:47;8.83;;;5.40;;
4555;SDS011;2290;48.674;9.018;2023-05-15T07:06:13;9.90;;;6.10;;
4555;SDS011;2290;48.674;9.018;2023-05-15T07:08:39;7.73;;;5.40;;
4555;SDS011;2290;48.674;9.018;2023-05-15T07:11:05;7.40;;;5.20;;
4555;SDS011;2290;48.674;9.018;2023-05-15T07:13:31;8.30;;;4.73;;
4555;SDS011;2290;48.674;9.018;2023-05-15T07:15:57;7.40;;;5.33;;
4555;SDS011;2290;48.674;9.018;2023-05-15T07:18:22;6.40;;;4.60;;
4555;SDS011;2290;48.674;9.018;2023-05-15T07:20:48;9.83;;;4.77;;
4555;SDS011;2290;48.674;9.018;2023-05-15T07:23:13;7.63;;;4.83;;
4555;SDS011;2290;48.674;9.018;2023-05-15T07:25:40;8.17;;;4.70;;
4555;SDS011;2290;48.674;9.018;2023-05-15T07:28:05;8.20;;;4.80;;
4555;SDS011;2290;48.674;9.018;2023-05-15T07:30:32;6.40;;;4.50;;
4555;SDS011;2290;48.674;9.018;2023-05-15T07:32:57;6.40;;;4.53;;
4555;SDS011;2290;48.674;9.018;2023-05-15T07:35:23;6.43;;;4.20;;
4555;SDS011;2290;48.674;9.018;2023-05-15T07:37:49;5.97;;;3.83;;
4555;SDS011;2290;48.674;9.018;2023-05-15T07:40:15;5.13;;;3.90;;
4555;SDS011;2290;48.674;9.018;2023-05-15T07:42:42;6.57;;;4.30;;
4555;SDS011;2290;48.674;9.018;2023-05-15T07:45:08;6.50;;;3.83;;
4555;SDS011;2290;48.674;9.018;2023-05-15T07:47:34;4.50;;;3.50;;
4555;SDS011;2290;48.674;9.018;2023-05-15T07:50:00;6.97;;;4.00;;
4555;SDS011;2290;48.674;9.018;2023-05-15T07:52:25;4.37;;;3.80;;
4555;SDS011;2290;48.674;9.018;2023-05-15T07:54:51;5.20;;;3.90;;
4555;SDS011;2290;48.674;9.018;2023-05-15T07:57:17;4.17;;;3.37;;
4555;SDS011;2290;48.674;9.018;2023-05-15T07:59:43;3.40;;;3.07;;
4555;SDS011;2290;48.674;9.018;2023-05-15T08:02:11;3.67;;;2.90;;
4555;SDS011;2290;48.674;9.018;2023-05-15T08:04:37;4.10;;;3.30;;
4555;SDS011;2290;48.674;9.018;2023-05-15T08:07:03;8.00;;;3.37;;
4555;SDS011;2290;48.674;9.018;2023-05-15T08:09:28;4.53;;;3.07;;
4555;SDS011;2290;48.674;9.018;2023-05-15T08:11:54;4.03;;;3.30;;
4555;SDS011;2290;48.674;9.018;2023-05-15T08:14:20;5.70;;;3.53;;
4555;SDS011;2290;48.674;9.018;2023-05-15T08:16:48;5.50;;;3.00;;
4555;SDS011;2290;48.674;9.018;2023-05-15T08:19:15;4.23;;;3.60;;
4555;SDS011;2290;48.674;9.018;2023-05-15T08:21:40;4.33;;;2.90;;
4555;SDS011;2290;48.674;9.018;2023-05-15T08:24:07;6.43;;;3.37;;
4555;SDS011;2290;48.674;9.018;2023-05-15T08:26:33;4.00;;;3.17;;
4555;SDS011;2290;48.674;9.018;2023-05-15T08:28:58;4.07;;;3.27;;
4555;SDS011;2290;48.674;9.018;2023-05-15T08:31:24;4.90;;;3.23;;
4555;SDS011;2290;48.674;9.018;2023-05-15T08:33:50;3.27;;;2.93;;
4555;SDS011;2290;48.674;9.018;2023-05-15T08:36:16;4.37;;;3.07;;
4555;SDS011;2290;48.674;9.018;2023-05-15T08:38:43;4.47;;;3.63;;
4555;SDS011;2290;48.674;9.018;2023-05-15T08:41:20;5.73;;;3.50;;
4555;SDS011;2290;48.674;9.018;2023-05-15T08:43:55;3.57;;;3.23;;
4555;SDS011;2290;48.674;9.018;2023-05-15T08:46:22;3.63;;;3.20;;
4555;SDS011;2290;48.674;9.018;2023-05-15T08:48:48;4.90;;;3.20;;
4555;SDS011;2290;48.674;9.018;2023-05-15T08:51:15;4.90;;;3.80;;
4555;SDS011;2290;48.674;9.018;2023-05-15T08:53:40;4.83;;;3.73;;
4555;SDS011;2290;48.674;9.018;2023-05-15T08:56:07;5.20;;;3.90;;
4555;SDS011;2290;48.674;9.018;2023-05-15T08:58:32;4.30;;;3.30;;
4555;SDS011;2290;48.674;9.018;2023-05-15T09:01:00;3.83;;;3.43;;
4555;SDS011;2290;48.674;9.018;2023-05-15T09:03:26;4.57;;;3.77;;
4555;SDS011;2290;48.674;9.018;2023-05-15T09:05:53;5.50;;;3.83;;
4555;SDS011;2290;48.674;9.018;2023-05-15T09:08:20;5.30;;;3.97;;
4555;SDS011;2290;48.674;9.018;2023-05-15T09:10:49;4.10;;;3.50;;
4555;SDS011;2290;48.674;9.018;2023-05-15T09:13:17;4.73;;;3.93;;
4555;SDS011;2290;48.674;9.018;2023-05-15T09:15:44;4.30;;;3.37;;
4555;SDS011;2290;48.674;9.018;2023-05-15T09:18:10;4.50;;;3.67;;
4555;SDS011;2290;48.674;9.018;2023-05-15T09:20:37;6.27;;;4.07;;
4555;SDS011;2290;48.674;9.018;2023-05-15T09:23:04;4.67;;;3.73;;
4555;SDS011;2290;48.674;9.018;2023-05-15T09:25:45;4.10;;;3.70;;
4555;SDS011;2290;48.674;9.018;2023-05-15T09:28:49;3.70;;;3.37;;
4555;SDS011;2290;48.674;9.018;2023-05-15T09:31:11;5.00;;;4.10;;
4555;SDS011;2290;48.674;9.018;2023-05-15T09:33:38;5.93;;;4.70;;
4555;SDS011;2290;48.674;9.018;2023-05-15T09:36:09;6.77;;;4.50;;
4555;SDS011;2290;48.674;9.018;2023-05-15T09:38:38;5.03;;;4.03;;
4555;SDS011;2290;48.674;9.018;2023-05-15T09:41:06;8.43;;;5.30;;
4555;SDS011;2290;48.674;9.018;2023-05-15T09:43:33;7.47;;;5.10;;
4555;SDS011;2290;48.674;9.018;2023-05-15T09:46:00;6.80;;;4.30;;
4555;SDS011;2290;48.674;9.018;2023-05-15T09:48:28;6.17;;;4.83;;
4555;SDS011;2290;48.674;9.018;2023-05-15T09:50:54;7.87;;;4.80;;
4555;SDS011;2290;48.674;9.018;2023-05-15T09:53:21;6.50;;;4.70;;
4555;SDS011;2290;48.674;9.018;2023-05-15T09:55:48;6.57;;;4.30;;
4555;SDS011;2290;48.674;9.018;2023-05-15T09:58:15;7.20;;;4.63;;
4555;SDS011;2290;48.674;9.018;2023-05-15T10:00:42;6.27;;;4.97;;
4555;SDS011;2290;48.674;9.018;2023-05-15T10:03:09;6.10;;;4.60;;
4555;SDS011;2290;48.674;9.018;2023-05-15T10:05:36;4.53;;;4.10;;
4555;SDS011;2290;48.674;9.018;2023-05-15T10:08:04;5.07;;;4.40;;
4555;SDS011;2290;48.674;9.018;2023-05-15T10:10:31;6.87;;;5.23;;
4555;SDS011;2290;48.674;9.018;2023-05-15T10:12:58;6.47;;;4.17;;
4555;SDS011;2290;48.674;9.018;2023-05-15T10:15:29;7.77;;;5.10;;
4555;SDS011;2290;48.674;9.018;2023-05-15T10:17:55;8.10;;;5.37;;
4555;SDS011;2290;48.674;9.018;2023-05-15T10:20:21;6.43;;;4.80;;
4555;SDS011;2290;48.674;9.018;2023-05-15T10:22:49;5.57;;;3.97;;
4555;SDS011;2290;48.674;9.018;2023-05-15T10:25:31;5.30;;;4.10;;
4555;SDS011;2290;48.674;9.018;2023-05-15T10:28:00;6.20;;;4.13;;
4555;SDS011;2290;48.674;9.018;2023-05-15T10:30:28;5.00;;;4.10;;
4555;SDS011;2290;48.674;9.018;2023-05-15T10:32:56;4.20;;;3.50;;
4555;SDS011;2290;48.674;9.018;2023-05-15T10:35:22;5.43;;;4.40;;
4555;SDS011;2290;48.674;9.018;2023-05-15T10:37:48;4.33;;;3.93;;
4555;SDS011;2290;48.674;9.018;2023-05-15T10:40:15;5.13;;;4.23;;
4555;SDS011;2290;48.674;9.018;2023-05-15T10:42:42;5.57;;;4.23;;
4555;SDS011;2290;48.674;9.018;2023-05-15T10:45:10;6.03;;;3.57;;
4555;SDS011;2290;48.674;9.018;2023-05-15T10:47:38;4.90;;;3.77;;
4555;SDS011;2290;48.674;9.018;2023-05-15T10:50:06;6.70;;;3.37;;
4555;SDS011;2290;48.674;9.018;2023-05-15T10:52:32;7.43;;;3.60;;
4555;SDS011;2290;48.674;9.018;2023-05-15T10:54:59;3.40;;;2.90;;
4555;SDS011;2290;48.674;9.018;2023-05-15T10:57:27;3.50;;;3.20;;
4555;SDS011;2290;48.674;9.018;2023-05-15T10:59:53;3.47;;;3.00;;
4555;SDS011;2290;48.674;9.018;2023-05-15T11:04:46;3.50;;;3.20;;
4555;SDS011;2290;48.674;9.018;2023-05-15T11:07:13;3.40;;;2.93;;
4555;SDS011;2290;48.674;9.018;2023-05-15T11:09:41;4.73;;;3.07;;
4555;SDS011;2290;48.674;9.018;2023-05-15T11:12:09;3.40;;;3.00;;
4555;SDS011;2290;48.674;9.018;2023-05-15T11:14:43;4.43;;;2.70;;
4555;SDS011;2290;48.674;9.018;2023-05-15T11:17:28;3.10;;;2.50;;
4555;SDS011;2290;48.674;9.018;2023-05-15T11:19:57;3.17;;;2.87;;
4555;SDS011;2290;48.674;9.018;2023-05-15T11:22:31;3.20;;;2.87;;
4555;SDS011;2290;48.674;9.018;2023-05-15T11:27:31;2.97;;;2.77;;
4555;SDS011;2290;48.674;9.018;2023-05-15T11:32:49;3.17;;;2.67;;
4555;SDS011;2290;48.674;9.018;2023-05-15T11:35:31;3.50;;;2.80;;
4555;SDS011;2290;48.674;9.018;2023-05-15T11:38:16;4.47;;;2.80;;
4555;SDS011;2290;48.674;9.018;2023-05-15T11:40:51;3.20;;;2.80;;
4555;SDS011;2290;48.674;9.018;2023-05-15T11:46:15;5.00;;;3.30;;
4555;SDS011;2290;48.674;9.018;2023-05-15T11:48:45;3.60;;;2.57;;
4555;SDS011;2290;48.674;9.018;2023-05-15T11:51:15;2.93;;;2.50;;
4555;SDS011;2290;48.674;9.018;2023-05-15T11:53:43;2.87;;;2.57;;
4555;SDS011;2290;48.674;9.018;2023-05-15T11:56:16;2.80;;;2.50;;
4555;SDS011;2290;48.674;9.018;2023-05-15T11:58:43;3.70;;;2.90;;
4555;SDS011;2290;48.674;9.018;2023-05-15T12:01:11;4.53;;;2.70;;
4555;SDS011;2290;48.674;9.018;2023-05-15T12:03:37;4.00;;;2.60;;
4555;SDS011;2290;48.674;9.018;2023-05-15T12:06:02;3.40;;;2.43;;
4555;SDS011;2290;48.674;9.018;2023-05-15T12:08:31;3.30;;;2.77;;
4555;SDS011;2290;48.674;9.018;2023-05-15T12:10:59;3.37;;;2.87;;
4555;SDS011;2290;48.674;9.018;2023-05-15T12:13:27;3.17;;;2.80;;
4555;SDS011;2290;48.674;9.018;2023-05-15T12:15:54;3.87;;;2.77;;
4555;SDS011;2290;48.674;9.018;2023-05-15T12:18:20;3.13;;;2.83;;
4555;SDS011;2290;48.674;9.018;2023-05-15T12:20:46;3.33;;;3.03;;
4555;SDS011;2290;48.674;9.018;2023-05-15T12:23:16;2.87;;;2.57;;
4555;SDS011;2290;48.674;9.018;2023-05-15T12:25:42;3.10;;;2.67;;
4555;SDS011;2290;48.674;9.018;2023-05-15T12:28:11;4.20;;;2.57;;
4555;SDS011;2290;48.674;9.018;2023-05-15T12:30:38;3.13;;;2.63;;
4555;SDS011;2290;48.674;9.018;2023-05-15T12:33:08;3.27;;;2.67;;
4555;SDS011;2290;48.674;9.018;2023-05-15T12:35:35;4.07;;;2.73;;
4555;SDS011;2290;48.674;9.018;2023-05-15T12:38:06;2.87;;;2.67;;
4555;SDS011;2290;48.674;9.018;2023-05-15T12:40:32;4.83;;;2.70;;
4555;SDS011;2290;48.674;9.018;2023-05-15T12:43:03;3.63;;;3.03;;
4555;SDS011;2290;48.674;9.018;2023-05-15T12:45:31;2.43;;;2.23;;
4555;SDS011;2290;48.674;9.018;2023-05-15T12:47:59;3.97;;;3.33;;
4555;SDS011;2290;48.674;9.018;2023-05-15T12:50:25;3.97;;;3.60;;
4555;SDS011;2290;48.674;9.018;2023-05-15T12:52:56;4.40;;;4.00;;
4555;SDS011;2290;48.674;9.018;2023-05-15T12:55:29;3.97;;;3.33;;
4555;SDS011;2290;48.674;9.018;2023-05-15T12:58:09;4.50;;;3.50;;
4555;SDS011;2290;48.674;9.018;2023-05-15T13:00:37;3.60;;;3.23;;
4555;SDS011;2290;48.674;9.018;2023-05-15T13:03:07;4.20;;;3.40;;
4555;SDS011;2290;48.674;9.018;2023-05-15T13:05:34;4.17;;;3.43;;
4555;SDS011;2290;48.674;9.018;2023-05-15T13:08:03;4.80;;;3.67;;
4555;SDS011;2290;48.674;9.018;2023-05-15T13:10:31;3.37;;;3.07;;
4555;SDS011;2290;48.674;9.018;2023-05-15T13:12:58;4.50;;;3.63;;
4555;SDS011;2290;48.674;9.018;2023-05-15T13:15:28;3.90;;;3.43;;
4555;SDS011;2290;48.674;9.018;2023-05-15T13:18:11;4.33;;;3.17;;
4555;SDS011;2290;48.674;9.018;2023-05-15T13:20:45;3.37;;;3.07;;
4555;SDS011;2290;48.674;9.018;2023-05-15T13:23:18;4.30;;;3.53;;
4555;SDS011;2290;48.674;9.018;2023-05-15T13:25:46;5.17;;;4.40;;
4555;SDS011;2290;48.674;9.018;2023-05-15T13:28:14;4.30;;;2.70;;
4555;SDS011;2290;48.674;9.018;2023-05-15T13:30:40;3.70;;;3.40;;
4555;SDS011;2290;48.674;9.018;2023-05-15T13:33:06;3.40;;;3.03;;
4555;SDS011;2290;48.674;9.018;2023-05-15T13:35:39;5.20;;;3.80;;
4555;SDS011;2290;48.674;9.018;2023-05-15T13:38:07;5.50;;;3.30;;
4555;SDS011;2290;48.674;9.018;2023-05-15T13:40:35;5.60;;;3.70;;
4555;SDS011;2290;48.674;9.018;2023-05-15T13:43:01;4.50;;;3.67;;
4555;SDS011;2290;48.674;9.018;2023-05-15T13:45:33;4.00;;;3.43;;
4555;SDS011;2290;48.674;9.018;2023-05-15T13:48:00;5.37;;;3.40;;
4555;SDS011;2290;48.674;9.018;2023-05-15T13:50:28;4.90;;;3.57;;
4555;SDS011;2290;48.674;9.018;2023-05-15T13:52:53;6.47;;;3.93;;
4555;SDS011;2290;48.674;9.018;2023-05-15T13:55:19;4.47;;;3.43;;
4555;SDS011;2290;48.674;9.018;2023-05-15T13:57:47;4.00;;;3.50;;
4555;SDS011;2290;48.674;9.018;2023-05-15T14:00:12;4.80;;;3.60;;
4555;SDS011;2290;48.674;9.018;2023-05-15T14:02:39;4.73;;;3.43;;
4555;SDS011;2290;48.674;9.018;2023-05-15T14:05:08;3.90;;;3.10;;
4555;SDS011;2290;48.674;9.018;2023-05-15T14:07:38;6.30;;;3.40;;
4555;SDS011;2290;48.674;9.018;2023-05-15T14:10:04;3.80;;;3.23;;
4555;SDS011;2290;48.674;9.018;2023-05-15T14:12:32;3.63;;;3.33;;
4555;SDS011;2290;48.674;9.018;2023-05-15T14:14:58;3.93;;;3.37;;
4555;SDS011;2290;48.674;9.018;2023-05-15T14:17:24;4.17;;;3.27;;
4555;SDS011;2290;48.674;9.018;2023-05-15T14:19:50;3.97;;;3.20;;
4555;SDS011;2290;48.674;9.018;2023-05-15T14:22:16;4.50;;;3.30;;
4555;SDS011;2290;48.674;9.018;2023-05-15T14:24:41;3.80;;;3.27;;
4555;SDS011;2290;48.674;9.018;2023-05-15T14:27:07;3.73;;;3.00;;
4555;SDS011;2290;48.674;9.018;2023-05-15T14:29:33;6.50;;;3.50;;
4555;SDS011;2290;48.674;9.018;2023-05-15T14:31:58;3.90;;;3.40;;
4555;SDS011;2290;48.674;9.018;2023-05-15T14:34:24;4.67;;;3.70;;
4555;SDS011;2290;48.674;9.018;2023-05-15T14:36:51;7.70;;;3.53;;
4555;SDS011;2290;48.674;9.018;2023-05-15T14:39:17;4.57;;;3.43;;
4555;SDS011;2290;48.674;9.018;2023-05-15T14:41:43;4.57;;;3.53;;
4555;SDS011;2290;48.674;9.018;2023-05-15T14:44:09;4.60;;;3.33;;
4555;SDS011;2290;48.674;9.018;2023-05-15T14:46:35;4.80;;;3.27;;
4555;SDS011;2290;48.674;9.018;2023-05-15T14:49:01;3.60;;;3.20;;
4555;SDS011;2290;48.674;9.018;2023-05-15T14:51:27;4.90;;;3.20;;
4555;SDS011;2290;48.674;9.018;2023-05-15T14:53:54;3.17;;;2.87;;
4555;SDS011;2290;48.674;9.018;2023-05-15T14:56:20;3.83;;;3.43;;
4555;SDS011;2290;48.674;9.018;2023-05-15T14:58:46;4.80;;;3.57;;
4555;SDS011;2290;48.674;9.018;2023-05-15T15:01:13;4.40;;;3.57;;
4555;SDS011;2290;48.674;9.018;2023-05-15T15:03:40;3.70;;;2.90;;
4555;SDS011;2290;48.674;9.018;2023-05-15T15:06:08;3.23;;;2.93;;
4555;SDS011;2290;48.674;9.018;2023-05-15T15:08:34;3.90;;;3.03;;
4555;SDS011;2290;48.674;9.018;2023-05-15T15:11:00;4.30;;;3.37;;
4555;SDS011;2290;48.674;9.018;2023-05-15T15:13:26;4.20;;;3.23;;
4555;SDS011;2290;48.674;9.018;2023-05-15T15:15:54;4.60;;;3.70;;
4555;SDS011;2290;48.674;9.018;2023-05-15T15:18:21;4.80;;;3.07;;
4555;SDS011;2290;48.674;9.018;2023-05-15T15:20:48;4.17;;;3.43;;
4555;SDS011;2290;48.674;9.018;2023-05-15T15:23:17;4.23;;;3.30;;
4555;SDS011;2290;48.674;9.018;2023-05-15T15:25:42;4.77;;;4.27;;
4555;SDS011;2290;48.674;9.018;2023-05-15T15:28:08;4.30;;;3.70;;
4555;SDS011;2290;48.674;9.018;2023-05-15T15:30:36;5.43;;;4.20;;
4555;SDS011;2290;48.674;9.018;2023-05-15T15:33:02;5.37;;;4.10;;
4555;SDS011;2290;48.674;9.018;2023-05-15T15:35:27;5.53;;;3.90;;
4555;SDS011;2290;48.674;9.018;2023-05-15T15:37:54;6.07;;;4.70;;
4555;SDS011;2290;48.674;9.018;2023-05-15T15:40:20;5.30;;;4.17;;
4555;SDS011;2290;48.674;9.018;2023-05-15T15:42:47;4.97;;;4.00;;